Time;durP1;ratioP1;P1;durP2;ratioP2;P2;SDS_P1;SDS_P2;PMS_P1;PMS_P2;Temp;Humidity;BMP_temperature;BMP_pressure;BME280_temperature;BME280_humidity;BME280_pressure;Samples;Min_cycle;Max_cycle;Signal;HPM_P1;HPM_P2
2021/12/09 00:01:33;;;;;;;4.10;3.17;;;5.00;99.90;;;5.21;94.26;99388.41;5049422;28;21206;-68
2021/12/09 00:04:05;;;;;;;7.50;3.13;;;5.00;99.90;;;5.16;94.81;99391.31;5051467;28;20619;-69
2021/12/09 00:06:34;;;;;;;4.95;3.08;;;5.00;99.90;;;5.13;95.01;99401.84;5050292;28;20236;-69
2021/12/09 00:09:07;;;;;;;5.93;3.10;;;4.90;99.90;;;5.11;95.23;99402.91;5052957;28;20677;-69
2021/12/09 00:11:43;;;;;;;8.25;4.07;;;4.90;99.90;;;5.08;95.02;99397.94;5047233;28;20621;-69
2021/12/09 00:14:18;;;;;;;7.47;3.50;;;4.90;99.90;;;5.08;95.33;99397.94;5039053;28;20219;-69
2021/12/09 00:16:45;;;;;;;6.18;3.70;;;4.90;99.90;;;4.99;95.56;99404.56;5050010;28;20661;-68
2021/12/09 00:19:12;;;;;;;4.95;2.95;;;4.80;99.90;;;4.99;95.90;99399.41;5051327;28;20205;-69
2021/12/09 00:21:39;;;;;;;4.45;3.20;;;4.80;99.90;;;4.95;95.68;99403.13;5050946;28;20661;-69
2021/12/09 00:24:06;;;;;;;3.38;2.92;;;4.80;99.90;;;4.94;95.40;99403.22;5051722;28;20216;-70
2021/12/09 00:26:33;;;;;;;3.40;3.03;;;4.80;99.90;;;4.90;95.79;99399.22;5048673;28;20223;-68
2021/12/09 00:29:01;;;;;;;3.58;2.75;;;4.70;99.90;;;4.86;96.51;99402.91;5067273;28;20981;-68
2021/12/09 00:31:27;;;;;;;5.45;3.47;;;4.60;99.90;;;4.84;96.46;99418.53;5050974;28;20200;-69
2021/12/09 00:33:57;;;;;;;4.32;3.22;;;4.60;99.90;;;4.80;96.40;99408.50;5051341;28;20209;-68
2021/12/09 00:36:27;;;;;;;5.30;3.47;;;4.60;99.90;;;4.79;96.09;99417.19;5048745;28;20255;-68
2021/12/09 00:38:56;;;;;;;7.97;4.38;;;4.60;99.90;;;4.78;96.59;99412.94;5050978;28;20273;-68
2021/12/09 00:41:23;;;;;;;6.90;4.10;;;4.60;99.90;;;4.72;95.50;99414.19;5050968;28;20288;-68
2021/12/09 00:43:50;;;;;;;5.38;3.95;;;4.60;99.90;;;4.63;95.17;99413.06;5051801;28;20241;-68
2021/12/09 00:46:17;;;;;;;9.10;4.65;;;4.50;99.90;;;4.57;95.28;99410.88;5050373;28;20316;-68
2021/12/09 00:48:46;;;;;;;9.90;3.78;;;4.40;99.90;;;4.57;95.28;99413.47;5049873;28;20205;-68
2021/12/09 00:51:13;;;;;;;5.30;3.22;;;4.40;99.90;;;4.55;95.21;99412.75;5033314;28;20206;-69
2021/12/09 00:53:40;;;;;;;7.50;3.03;;;4.40;99.90;;;4.55;95.45;99420.50;5048766;28;20680;-69
2021/12/09 00:56:09;;;;;;;4.25;2.83;;;4.40;99.90;;;4.54;95.34;99415.41;5035395;28;20229;-69
2021/12/09 00:58:39;;;;;;;5.47;3.20;;;4.40;99.90;;;4.51;94.98;99416.47;5044051;28;20209;-69
2021/12/09 01:01:08;;;;;;;10.15;3.65;;;4.30;99.90;;;4.45;95.26;99424.59;5066196;28;20203;-70
2021/12/09 01:03:37;;;;;;;8.40;3.25;;;4.30;99.90;;;4.39;95.71;99429.31;5049511;28;20316;-69
2021/12/09 01:06:04;;;;;;;6.30;3.08;;;4.20;99.90;;;4.39;96.07;99427.56;5042860;28;20218;-69
2021/12/09 01:08:43;;;;;;;4.75;3.35;;;4.20;99.90;;;4.31;96.40;99422.09;5031044;28;20205;-69
2021/12/09 01:11:12;;;;;;;3.95;2.67;;;4.10;99.90;;;4.29;96.90;99426.53;5029976;28;20210;-69
2021/12/09 01:13:41;;;;;;;6.63;2.92;;;4.10;99.90;;;4.27;97.27;99425.81;5050620;28;20227;-69
2021/12/09 01:16:08;;;;;;;5.25;2.92;;;4.10;99.90;;;4.27;97.06;99432.72;5049288;28;20239;-68
2021/12/09 01:18:37;;;;;;;11.10;3.30;;;4.10;99.90;;;4.22;97.17;99427.84;5049249;28;20223;-68
2021/12/09 01:21:06;;;;;;;8.48;3.13;;;4.00;99.90;;;4.19;97.55;99425.47;5047978;28;20236;-68
2021/12/09 01:23:33;;;;;;;4.82;2.60;;;4.00;99.90;;;4.18;97.68;99428.97;5049146;28;20712;-69
2021/12/09 01:26:03;;;;;;;4.72;3.20;;;4.00;99.90;;;4.08;98.09;99415.03;5050536;28;20226;-68
2021/12/09 01:28:38;;;;;;;3.70;3.08;;;4.00;99.90;;;4.07;98.58;99422.88;5049866;28;20229;-69
2021/12/09 01:31:06;;;;;;;8.90;3.30;;;3.90;99.90;;;4.06;98.52;99427.19;5030230;28;20843;-68
2021/12/09 01:33:35;;;;;;;6.78;3.13;;;3.90;99.90;;;4.10;98.58;99433.81;5047723;28;20211;-69
2021/12/09 01:36:05;;;;;;;8.27;3.00;;;4.00;99.90;;;4.01;98.97;99438.72;5048412;28;20537;-69
2021/12/09 01:38:33;;;;;;;3.70;3.10;;;3.90;99.90;;;4.07;99.30;99435.78;5050926;28;20201;-68
2021/12/09 01:41:02;;;;;;;4.57;2.97;;;3.90;99.90;;;4.11;98.76;99442.41;5049635;28;20201;-68
2021/12/09 01:43:29;;;;;;;6.57;3.80;;;4.00;99.90;;;4.16;98.80;99443.75;5049596;28;20740;-68
2021/12/09 01:46:09;;;;;;;9.57;3.03;;;4.00;99.90;;;4.20;98.80;99447.78;5049239;28;20795;-68
2021/12/09 01:48:39;;;;;;;4.53;3.08;;;4.10;99.90;;;4.23;98.67;99441.59;5038563;28;20199;-69
2021/12/09 01:51:07;;;;;;;5.88;3.20;;;4.10;99.90;;;4.25;98.26;99448.31;5027659;28;20267;-68
2021/12/09 01:53:35;;;;;;;6.35;2.85;;;4.20;99.90;;;4.30;97.99;99451.41;5046907;28;20576;-68
2021/12/09 01:56:06;;;;;;;9.63;3.85;;;4.20;99.90;;;4.36;96.40;99448.44;5047509;28;20726;-65
2021/12/09 01:58:34;;;;;;;6.60;2.92;;;4.30;99.90;;;4.38;95.69;99454.34;5050267;28;20209;-69
2021/12/09 02:01:04;;;;;;;3.33;2.90;;;4.30;99.90;;;4.35;95.68;99444.19;5044101;28;20284;-68
2021/12/09 02:03:33;;;;;;;2.15;1.63;;;4.20;99.90;;;4.29;95.48;99439.44;5030524;28;20229;-68
2021/12/09 02:06:00;;;;;;;5.28;2.63;;;4.10;99.90;;;4.27;95.36;99448.22;5044624;28;20263;-68
2021/12/09 02:08:28;;;;;;;3.65;3.20;;;4.10;99.90;;;4.16;95.62;99448.06;5062788;28;20219;-68
2021/12/09 02:10:55;;;;;;;3.58;2.50;;;4.00;99.90;;;4.11;94.98;99448.34;5048762;28;20212;-68
2021/12/09 02:13:22;;;;;;;3.28;2.60;;;4.00;99.90;;;4.07;95.67;99448.69;5047644;28;20732;-69
2021/12/09 02:15:52;;;;;;;3.10;2.30;;;3.90;99.90;;;4.01;95.57;99449.03;5064146;28;20225;-69
2021/12/09 02:18:21;;;;;;;3.90;3.10;;;3.80;99.90;;;3.89;96.26;99448.09;5046988;28;20216;-67
2021/12/09 02:21:14;;;;;;;4.25;2.90;;;3.70;99.90;;;3.84;96.80;99437.22;5047254;28;20635;-69
2021/12/09 02:23:51;;;;;;;6.32;3.22;;;3.70;99.90;;;3.83;97.20;99443.31;5046972;28;20236;-68
2021/12/09 02:26:22;;;;;;;3.50;2.65;;;3.70;99.90;;;3.77;96.55;99443.69;5035879;28;20660;-68
2021/12/09 02:28:51;;;;;;;3.30;3.00;;;3.60;99.90;;;3.77;96.49;99441.94;5029958;28;20194;-68
2021/12/09 02:31:20;;;;;;;9.48;2.55;;;3.60;99.90;;;3.71;96.64;99438.91;5035306;28;20202;-68
2021/12/09 02:33:47;;;;;;;4.82;2.30;;;3.60;99.90;;;3.67;96.99;99437.44;5050308;28;20307;-68
2021/12/09 02:36:15;;;;;;;5.15;2.92;;;3.50;99.90;;;3.68;97.03;99439.13;5045999;28;20240;-68
2021/12/09 02:38:45;;;;;;;5.93;3.17;;;3.50;99.90;;;3.57;97.51;99434.63;5041456;28;20206;-68
2021/12/09 02:41:18;;;;;;;4.30;2.65;;;3.40;99.90;;;3.54;97.57;99439.97;5049749;28;20201;-68
2021/12/09 02:43:54;;;;;;;5.10;2.90;;;3.40;99.90;;;3.55;97.40;99444.22;5045826;28;20600;-68
2021/12/09 02:46:25;;;;;;;5.38;2.95;;;3.40;99.90;;;3.53;97.75;99443.47;5047722;28;20224;-68
2021/12/09 02:48:53;;;;;;;4.35;2.92;;;3.40;99.90;;;3.52;97.60;99448.72;5048907;28;20795;-68
2021/12/09 02:51:21;;;;;;;5.68;3.25;;;3.30;99.90;;;3.47;97.63;99449.00;5053156;28;20202;-69
2021/12/09 02:53:48;;;;;;;5.32;3.15;;;3.30;99.90;;;3.43;97.62;99452.69;5051340;28;20211;-68
2021/12/09 02:56:15;;;;;;;6.40;3.67;;;3.30;99.90;;;3.40;97.79;99462.38;5048514;28;20705;-68
2021/12/09 02:58:42;;;;;;;4.07;2.97;;;3.20;99.90;;;3.38;97.70;99461.63;5034570;28;20268;-68
2021/12/09 03:01:26;;;;;;;3.88;2.95;;;3.20;99.90;;;3.33;97.57;99472.22;5050857;28;20209;-68
2021/12/09 03:03:59;;;;;;;5.22;3.22;;;3.20;99.90;;;3.32;96.97;99480.91;5050748;28;20324;-68
2021/12/09 03:06:39;;;;;;;5.63;3.55;;;3.10;99.90;;;3.30;97.31;99487.06;5042537;28;20218;-68
2021/12/09 03:09:15;;;;;;;8.55;3.08;;;3.10;99.90;;;3.28;96.49;99481.16;5059212;28;20197;-69
2021/12/09 03:11:47;;;;;;;3.90;3.38;;;3.10;99.90;;;3.26;96.52;99483.00;5050267;28;20208;-69
2021/12/09 03:14:20;;;;;;;5.05;3.25;;;3.10;99.90;;;3.21;96.04;99485.03;5053022;28;20201;-69
2021/12/09 03:16:47;;;;;;;5.28;3.17;;;3.00;99.90;;;3.19;96.98;99490.28;5049925;28;20355;-68
2021/12/09 03:19:14;;;;;;;4.57;2.97;;;3.10;99.90;;;3.15;97.18;99504.28;5050649;28;20212;-69
2021/12/09 03:21:44;;;;;;;4.30;2.90;;;3.00;99.90;;;3.12;97.45;99507.03;5052412;28;20201;-69
2021/12/09 03:24:18;;;;;;;5.38;2.95;;;3.00;99.90;;;3.16;97.94;99505.91;5048997;28;20213;-68
2021/12/09 03:26:54;;;;;;;2.45;2.30;;;3.00;99.90;;;3.11;98.20;99501.03;5048841;28;20236;-69
2021/12/09 03:29:25;;;;;;;4.43;2.25;;;3.00;99.90;;;3.09;97.83;99494.31;5051714;28;20204;-68
2021/12/09 03:31:56;;;;;;;3.88;1.90;;;3.00;99.90;;;3.13;98.28;99499.19;5048742;28;20292;-69
2021/12/09 03:34:28;;;;;;;2.60;2.10;;;3.00;99.90;;;3.12;98.75;99507.03;5047163;28;20213;-68
2021/12/09 03:36:58;;;;;;;2.38;2.00;;;3.00;99.90;;;3.14;98.61;99498.28;5043293;28;20769;-68
2021/12/09 03:39:31;;;;;;;3.17;2.97;;;3.00;99.90;;;3.12;98.50;99509.59;5048247;28;20254;-69
2021/12/09 03:42:00;;;;;;;2.85;2.30;;;3.00;99.90;;;3.11;98.65;99507.91;5049051;28;20281;-68
2021/12/09 03:44:28;;;;;;;3.53;2.10;;;3.00;99.90;;;3.17;99.39;99511.91;5044759;28;20607;-69
2021/12/09 03:46:59;;;;;;;3.40;2.35;;;3.10;99.90;;;3.25;99.41;99512.28;5066947;28;20722;-68
2021/12/09 03:49:27;;;;;;;3.80;2.20;;;3.20;99.90;;;3.33;98.24;99502.31;5049995;28;20252;-68
2021/12/09 03:51:56;;;;;;;2.95;2.50;;;3.30;99.90;;;3.35;98.47;99505.63;5052164;28;20193;-69
2021/12/09 03:54:24;;;;;;;4.30;2.45;;;3.30;99.90;;;3.41;98.02;99507.88;5054092;28;20241;-68
2021/12/09 03:56:52;;;;;;;2.08;1.73;;;3.30;99.90;;;3.49;97.53;99508.22;5052179;28;20224;-68
2021/12/09 03:59:19;;;;;;;3.15;2.05;;;3.50;99.90;;;3.53;98.11;99512.28;5048633;28;20232;-69
2021/12/09 04:01:47;;;;;;;2.33;2.17;;;3.50;99.90;;;3.55;98.00;99513.84;5042893;28;20211;-68
2021/12/09 04:04:15;;;;;;;2.05;1.85;;;3.50;99.90;;;3.60;98.16;99511.00;5051174;28;20267;-68
2021/12/09 04:06:44;;;;;;;2.80;2.30;;;3.50;99.90;;;3.66;96.82;99503.69;5048002;28;20213;-68
2021/12/09 04:09:14;;;;;;;2.30;2.10;;;3.60;99.90;;;3.71;96.57;99504.22;5050145;28;20196;-69
2021/12/09 04:11:42;;;;;;;2.60;2.38;;;3.70;99.90;;;3.71;96.46;99504.22;5048979;28;20207;-69
2021/12/09 04:14:09;;;;;;;4.60;2.42;;;3.70;99.90;;;3.80;96.13;99502.84;5052448;28;20602;-68
2021/12/09 04:16:36;;;;;;;3.72;2.08;;;3.80;99.90;;;3.84;95.58;99510.28;5048660;28;20776;-68
2021/12/09 04:19:07;;;;;;;1.88;1.75;;;3.80;99.90;;;3.87;95.57;99502.38;5051008;28;20207;-68
2021/12/09 04:21:35;;;;;;;9.05;2.20;;;3.80;99.90;;;3.88;95.09;99501.44;5050052;28;20580;-68
2021/12/09 04:24:07;;;;;;;2.65;1.92;;;3.90;99.90;;;3.93;94.73;99501.16;5049348;28;20231;-68
2021/12/09 04:26:41;;;;;;;1.95;1.85;;;3.90;99.90;;;3.96;94.61;99508.72;5047890;28;20220;-68
2021/12/09 04:29:11;;;;;;;2.60;2.00;;;3.90;99.90;;;3.96;94.00;99513.88;5047300;28;20201;-68
2021/12/09 04:31:40;;;;;;;2.50;2.30;;;3.90;99.90;;;3.96;94.12;99513.03;5049662;28;20204;-69
2021/12/09 04:34:07;;;;;;;3.28;2.05;;;3.90;99.90;;;3.93;94.44;99524.38;5050157;28;20240;-69
2021/12/09 04:36:34;;;;;;;2.42;2.22;;;3.80;99.90;;;3.95;95.02;99522.53;5054560;22;20234;-63
2021/12/09 04:39:04;;;;;;;1.92;1.83;;;3.80;99.90;;;3.98;94.72;99527.50;5031519;28;20224;-65
2021/12/09 04:41:31;;;;;;;2.58;2.17;;;3.90;99.90;;;4.03;94.90;99522.88;5031132;28;20202;-64
2021/12/09 04:43:58;;;;;;;2.35;2.22;;;4.00;99.90;;;4.05;94.36;99522.78;5031756;28;20222;-64
2021/12/09 04:46:25;;;;;;;6.88;2.03;;;4.00;99.90;;;4.09;94.21;99530.22;5029688;28;20201;-64
2021/12/09 04:48:52;;;;;;;3.47;1.70;;;4.00;99.90;;;4.14;93.90;99525.63;5010896;28;20205;-64
2021/12/09 04:51:19;;;;;;;2.00;1.80;;;4.10;99.90;;;4.17;93.77;99519.44;5010647;28;20635;-65
2021/12/09 04:53:46;;;;;;;3.42;1.92;;;4.10;99.90;;;4.21;93.73;99524.31;5010251;28;20203;-64
2021/12/09 04:56:13;;;;;;;2.05;1.67;;;4.10;99.90;;;4.25;93.08;99523.19;5010332;28;20209;-65
2021/12/09 04:58:40;;;;;;;4.35;1.65;;;4.20;99.90;;;4.27;92.93;99523.09;5011663;28;20237;-65
2021/12/09 05:01:09;;;;;;;2.90;1.70;;;4.20;99.90;;;4.30;92.57;99528.06;5011437;28;20257;-65
2021/12/09 05:03:37;;;;;;;2.45;1.60;;;4.20;99.90;;;4.35;92.53;99523.41;5009935;28;20258;-64
2021/12/09 05:06:04;;;;;;;3.60;1.25;;;4.30;99.90;;;4.37;92.07;99527.56;5011083;28;20198;-64
2021/12/09 05:08:32;;;;;;;2.03;1.90;;;4.30;99.90;;;4.40;91.57;99535.13;5007015;28;20223;-64
2021/12/09 05:13:32;;;;;;;8.15;1.92;;;4.30;99.90;;;4.36;91.32;99532.84;5010323;28;20257;-64
2021/12/09 05:16:00;;;;;;;1.80;1.70;;;4.30;99.90;;;4.37;91.43;99540.47;5009222;28;20225;-64
2021/12/09 05:18:31;;;;;;;3.13;2.25;;;4.30;99.90;;;4.36;91.25;99536.25;5008889;28;20230;-64
2021/12/09 05:20:59;;;;;;;2.10;1.90;;;4.30;99.90;;;4.38;91.19;99551.63;5008682;28;20685;-64
2021/12/09 05:23:27;;;;;;;2.88;2.00;;;4.30;99.90;;;4.40;91.20;99555.78;5008506;28;20234;-65
2021/12/09 05:25:54;;;;;;;1.63;1.50;;;4.30;99.90;;;4.43;90.95;99547.03;5011870;28;20210;-64
2021/12/09 05:28:30;;;;;;;2.58;1.85;;;4.40;99.90;;;4.43;90.66;99552.19;5008724;28;20224;-64
2021/12/09 05:33:44;;;;;;;5.45;2.00;;;4.40;99.90;;;4.41;90.60;99557.44;5010427;28;20245;-64
2021/12/09 05:36:11;;;;;;;1.58;1.48;;;4.30;99.90;;;4.37;90.62;99545.63;5011288;28;20653;-64
2021/12/09 05:38:39;;;;;;;1.98;1.60;;;4.30;99.90;;;4.34;91.08;99551.03;5008913;28;20231;-64
2021/12/09 05:41:08;;;;;;;1.70;1.58;;;4.20;99.90;;;4.32;91.27;99555.41;5010277;28;20736;-64
2021/12/09 05:43:36;;;;;;;1.80;1.52;;;4.20;99.90;;;4.34;91.35;99555.34;5011679;28;20223;-64
2021/12/09 05:46:04;;;;;;;2.67;1.90;;;4.20;99.90;;;4.30;91.17;99559.84;5024824;28;20690;-65
2021/12/09 05:48:32;;;;;;;8.32;1.88;;;4.20;99.90;;;4.31;91.13;99566.69;5009644;28;20218;-64
2021/12/09 05:50:59;;;;;;;1.38;1.38;;;4.20;99.90;;;4.30;91.16;99572.75;5010928;28;20207;-64
2021/12/09 05:53:26;;;;;;;1.65;1.48;;;4.20;99.90;;;4.32;91.72;99577.84;5009922;28;20212;-65
2021/12/09 05:55:53;;;;;;;1.83;1.42;;;4.20;99.90;;;4.31;91.11;99577.03;5010043;28;20211;-64
2021/12/09 05:58:23;;;;;;;2.00;1.90;;;4.20;99.90;;;4.32;90.87;99581.25;5009798;28;20246;-64
2021/12/09 06:00:52;;;;;;;1.77;1.48;;;4.20;99.90;;;4.33;91.16;99585.50;5010630;28;20595;-64
2021/12/09 06:03:22;;;;;;;1.92;1.60;;;4.20;99.90;;;4.32;91.40;99586.41;5013402;28;20360;-65
2021/12/09 06:05:50;;;;;;;8.90;1.73;;;4.20;99.90;;;4.26;91.50;99584.22;5002748;28;20286;-65
2021/12/09 06:08:19;;;;;;;2.80;1.85;;;4.20;99.90;;;4.25;91.63;99600.66;5009097;28;20310;-64
2021/12/09 06:10:46;;;;;;;1.50;1.40;;;4.10;99.90;;;4.22;91.84;99607.72;5008766;28;20576;-64
2021/12/09 06:13:14;;;;;;;2.78;1.70;;;4.10;99.90;;;4.20;92.18;99613.00;5009597;28;20206;-64
2021/12/09 06:15:41;;;;;;;1.75;1.60;;;4.10;99.90;;;4.19;92.33;99608.78;5009646;28;20212;-64
2021/12/09 06:18:08;;;;;;;3.95;2.30;;;4.10;99.90;;;4.21;92.39;99608.66;5009125;28;20222;-64
2021/12/09 06:20:35;;;;;;;2.15;2.00;;;4.10;99.90;;;4.13;92.56;99618.66;5011160;28;20203;-64
2021/12/09 06:23:03;;;;;;;2.05;1.85;;;4.00;99.90;;;4.13;92.61;99624.63;5010308;28;20205;-64
2021/12/09 06:25:31;;;;;;;2.38;2.17;;;4.00;99.90;;;4.04;93.23;99622.63;5012624;28;20226;-65
2021/12/09 06:27:58;;;;;;;2.60;2.40;;;3.90;99.90;;;4.08;93.21;99621.50;5014056;28;20217;-64
2021/12/09 06:30:26;;;;;;;3.72;2.40;;;4.00;99.90;;;4.05;92.96;99618.25;5012592;28;20199;-64
2021/12/09 06:32:53;;;;;;;1.73;1.63;;;3.90;99.90;;;4.05;93.17;99616.53;5014181;28;20205;-64
2021/12/09 06:35:21;;;;;;;3.65;2.10;;;4.00;99.90;;;4.10;92.85;99614.50;5012355;28;20599;-64
2021/12/09 06:37:49;;;;;;;3.92;2.72;;;4.00;99.90;;;4.12;92.29;99620.41;5011408;28;20249;-64
2021/12/09 06:40:19;;;;;;;3.08;2.50;;;4.00;99.90;;;4.10;92.89;99626.56;5013317;28;20219;-64
2021/12/09 06:42:48;;;;;;;4.90;2.95;;;4.00;99.90;;;4.09;92.99;99628.31;5012934;28;20559;-65
2021/12/09 06:45:18;;;;;;;4.22;2.58;;;4.00;99.90;;;4.11;92.86;99634.22;4976470;28;20317;-64
2021/12/09 06:47:46;;;;;;;4.05;2.75;;;4.00;99.90;;;4.15;93.05;99635.72;4994496;28;20234;-64
2021/12/09 06:50:18;;;;;;;2.90;2.05;;;4.00;99.90;;;4.15;92.61;99635.72;5012234;28;20199;-64
2021/12/09 06:52:45;;;;;;;1.80;1.70;;;4.10;99.90;;;4.11;92.14;99626.47;5012935;28;20207;-64
2021/12/09 06:55:15;;;;;;;2.25;1.67;;;4.00;99.90;;;4.13;92.21;99639.31;5011845;28;20209;-64
2021/12/09 06:57:44;;;;;;;3.90;2.10;;;4.10;99.90;;;4.10;92.08;99642.06;5013399;28;20727;-64
2021/12/09 07:00:25;;;;;;;3.35;2.25;;;4.00;99.90;;;4.08;92.31;99642.16;5014364;28;20213;-64
2021/12/09 07:02:53;;;;;;;4.07;3.03;;;4.00;99.90;;;4.05;92.86;99644.06;5007306;28;20202;-65
2021/12/09 07:05:24;;;;;;;2.22;1.90;;;3.90;99.90;;;4.06;93.01;99641.41;5010932;28;20231;-64
2021/12/09 07:07:52;;;;;;;8.57;2.55;;;3.90;99.90;;;4.08;92.43;99646.47;5012893;28;20222;-65
2021/12/09 07:10:22;;;;;;;1.30;0.93;;;4.00;99.90;;;4.07;92.85;99653.41;5012347;28;20205;-64
2021/12/09 07:12:50;;;;;;;4.43;1.60;;;4.00;99.90;;;4.08;92.56;99654.22;5012500;28;20285;-63
2021/12/09 07:15:18;;;;;;;3.80;1.92;;;4.00;99.90;;;4.13;92.50;99655.59;5012102;28;20207;-64
2021/12/09 07:17:45;;;;;;;2.00;1.80;;;4.10;99.90;;;4.13;92.10;99655.59;5012074;28;20227;-64
2021/12/09 07:20:17;;;;;;;3.50;2.13;;;4.00;99.90;;;4.11;92.22;99672.94;5012658;28;20216;-64
2021/12/09 07:22:48;;;;;;;2.10;1.85;;;4.00;99.90;;;4.15;92.63;99663.28;5012322;28;20593;-63
2021/12/09 07:25:16;;;;;;;2.70;2.15;;;4.10;99.90;;;4.12;92.10;99664.28;5009573;28;20219;-64
2021/12/09 07:27:44;;;;;;;1.83;1.67;;;4.00;99.90;;;4.14;92.22;99653.84;5010829;28;20593;-64
2021/12/09 07:30:14;;;;;;;2.72;2.53;;;4.00;99.90;;;4.12;92.21;99656.53;5010698;28;20199;-64
2021/12/09 07:32:41;;;;;;;2.30;2.10;;;4.10;99.90;;;4.10;92.69;99658.38;5012302;28;20721;-64
2021/12/09 07:35:10;;;;;;;2.38;2.05;;;4.00;99.90;;;4.11;92.73;99657.44;5011354;28;20301;-64
2021/12/09 07:37:38;;;;;;;4.15;2.92;;;4.00;99.90;;;4.14;92.59;99666.75;5011960;28;20238;-64
2021/12/09 07:40:10;;;;;;;4.47;3.10;;;4.10;99.90;;;4.18;92.53;99661.31;5012415;28;20207;-64
2021/12/09 07:42:37;;;;;;;4.50;3.30;;;4.10;99.90;;;4.22;92.71;99667.13;5011525;28;20210;-65
2021/12/09 07:45:07;;;;;;;4.68;3.38;;;4.10;99.90;;;4.25;92.64;99675.53;5022457;28;20223;-64
2021/12/09 07:47:34;;;;;;;2.72;2.53;;;4.10;99.90;;;4.25;92.66;99672.94;5010236;28;20233;-64
2021/12/09 07:50:03;;;;;;;6.53;2.97;;;4.20;99.90;;;4.28;92.70;99671.94;5013258;28;20202;-64
2021/12/09 07:52:30;;;;;;;7.57;3.03;;;4.20;99.90;;;4.36;92.99;99672.28;5010293;28;20207;-64
2021/12/09 07:54:57;;;;;;;6.65;3.53;;;4.20;99.90;;;4.45;93.91;99677.69;5012790;28;20217;-64
2021/12/09 07:57:24;;;;;;;9.25;3.67;;;4.30;99.90;;;4.60;93.60;99683.66;5012317;28;20226;-64
2021/12/09 07:59:51;;;;;;;7.05;3.67;;;4.50;99.90;;;4.78;93.43;99689.44;5010505;28;20211;-64
2021/12/09 08:02:18;;;;;;;4.93;2.88;;;4.70;99.90;;;4.89;92.68;99687.00;5011068;28;20217;-64
2021/12/09 08:04:45;;;;;;;5.25;3.25;;;4.80;99.90;;;4.96;91.20;99688.28;5012156;28;20262;-64
2021/12/09 08:07:12;;;;;;;3.60;2.88;;;4.90;99.90;;;4.99;89.70;99691.50;5008163;28;20780;-62
2021/12/09 08:09:39;;;;;;;3.50;2.83;;;4.90;99.90;;;4.98;89.05;99686.44;5002211;28;20583;-64
2021/12/09 08:12:06;;;;;;;3.17;2.80;;;4.90;99.90;;;4.98;87.49;99687.25;5011430;28;20644;-64
2021/12/09 08:14:33;;;;;;;2.92;2.67;;;4.90;99.90;;;4.94;87.10;99683.19;5012968;28;20627;-64
2021/12/09 08:17:13;;;;;;;5.28;2.45;;;4.90;99.90;;;4.91;87.11;99692.91;5009974;28;20226;-64
2021/12/09 08:19:40;;;;;;;3.95;2.80;;;4.80;99.90;;;4.85;87.54;99701.88;5012732;28;20238;-66
2021/12/09 08:22:08;;;;;;;3.90;2.20;;;4.80;99.90;;;4.87;87.39;99701.78;5009575;28;20199;-65
2021/12/09 08:24:35;;;;;;;3.00;2.50;;;4.80;99.90;;;4.91;87.41;99700.66;5011665;28;20229;-64
2021/12/09 08:27:02;;;;;;;3.05;2.67;;;4.80;99.90;;;4.95;87.70;99709.88;5010610;28;20600;-64
2021/12/09 08:29:29;;;;;;;7.10;3.15;;;4.90;99.90;;;5.02;87.72;99704.25;5012024;28;20249;-64
2021/12/09 08:31:56;;;;;;;4.77;3.40;;;5.00;99.90;;;5.16;87.84;99704.16;5010522;28;20663;-64
2021/12/09 08:34:23;;;;;;;14.30;6.87;;;5.20;99.90;;;5.42;87.34;99707.66;5012008;28;20619;-64
2021/12/09 08:36:54;;;;;;;8.85;5.50;;;5.40;99.90;;;5.67;86.14;99707.69;5011502;28;20673;-64
2021/12/09 08:39:22;;;;;;;2.85;2.65;;;5.80;99.90;;;5.92;83.37;99723.28;5011539;28;20207;-64
2021/12/09 08:41:49;;;;;;;5.10;3.30;;;6.10;99.90;;;6.09;82.60;99717.78;5009437;28;20203;-64
2021/12/09 08:44:16;;;;;;;5.23;3.50;;;6.30;99.90;;;6.12;81.87;99729.69;5009342;28;20679;-64
2021/12/09 08:46:43;;;;;;;4.40;3.07;;;6.20;99.90;;;6.09;80.83;99735.91;5010791;28;20736;-64
2021/12/09 08:49:10;;;;;;;4.23;3.47;;;6.20;99.90;;;5.96;80.19;99735.06;5006320;28;21197;-63
2021/12/09 08:51:38;;;;;;;8.20;3.27;;;6.00;99.90;;;5.80;81.80;99742.19;5011053;28;20629;-64
2021/12/09 08:54:06;;;;;;;2.80;2.57;;;5.80;99.90;;;5.65;81.85;99743.19;5011716;28;20629;-64
2021/12/09 08:56:36;;;;;;;4.00;3.03;;;5.50;99.90;;;5.47;82.60;99747.81;5017135;28;20704;-64
2021/12/09 08:59:05;;;;;;;12.83;3.30;;;5.40;99.90;;;5.37;83.86;99745.91;5009512;28;20641;-64
2021/12/09 09:01:34;;;;;;;5.23;3.20;;;5.20;99.90;;;5.25;84.77;99746.72;5025047;28;20616;-64
2021/12/09 09:04:02;;;;;;;12.07;4.03;;;5.10;99.90;;;5.17;85.53;99743.78;5010153;28;20672;-64
2021/12/09 09:06:31;;;;;;;5.05;2.95;;;5.00;99.90;;;5.12;86.02;99748.41;5009025;28;20712;-64
2021/12/09 09:09:00;;;;;;;6.85;3.63;;;5.00;99.90;;;5.08;86.19;99754.72;5009685;28;20293;-64
2021/12/09 09:11:28;;;;;;;4.47;3.10;;;4.90;99.90;;;5.07;86.30;99753.88;5010468;28;20194;-64
2021/12/09 09:13:55;;;;;;;2.88;2.67;;;5.00;99.90;;;5.08;86.88;99754.72;5010599;28;20206;-64
2021/12/09 09:16:23;;;;;;;5.70;3.10;;;5.00;99.90;;;5.07;86.77;99742.72;5011809;28;20209;-63
2021/12/09 09:18:53;;;;;;;5.72;3.42;;;5.00;99.90;;;5.06;86.96;99757.41;5010512;28;20209;-64
2021/12/09 09:21:20;;;;;;;7.15;3.50;;;5.00;99.90;;;5.07;87.31;99753.06;5010802;28;20261;-63
2021/12/09 09:23:47;;;;;;;7.50;3.67;;;5.00;99.90;;;5.08;87.03;99757.28;5010534;28;20210;-64
2021/12/09 09:26:14;;;;;;;4.23;3.07;;;5.00;99.90;;;5.11;87.60;99749.34;5010617;28;20244;-63
2021/12/09 09:28:41;;;;;;;3.53;2.85;;;5.10;99.90;;;5.06;87.30;99743.63;5008771;28;21402;-63
2021/12/09 09:31:09;;;;;;;3.60;2.80;;;5.10;99.90;;;5.17;86.68;99733.44;5011649;28;20670;-64
2021/12/09 09:33:36;;;;;;;5.10;3.05;;;5.10;99.90;;;5.26;86.14;99743.22;5010723;28;20670;-63
2021/12/09 09:36:04;;;;;;;5.63;3.10;;;5.20;99.90;;;5.33;85.76;99741.88;5009676;28;20257;-63
2021/12/09 09:38:31;;;;;;;3.08;2.50;;;5.30;99.90;;;5.36;84.95;99744.28;5010789;28;20792;-63
2021/12/09 09:41:13;;;;;;;3.08;2.75;;;5.40;99.90;;;5.47;84.41;99742.63;5010674;28;20257;-63
2021/12/09 09:46:19;;;;;;;3.40;2.57;;;5.60;99.90;;;5.76;82.49;99752.84;5009417;28;20672;-64
2021/12/09 09:48:48;;;;;;;8.60;3.40;;;5.80;99.90;;;5.99;82.34;99755.59;5010209;28;20692;-64
2021/12/09 09:51:18;;;;;;;4.90;2.83;;;6.10;99.90;;;6.23;81.19;99756.56;5010990;28;20609;-65
2021/12/09 09:53:46;;;;;;;4.33;3.43;;;6.30;99.90;;;6.41;80.37;99767.41;5009179;28;21185;-64
2021/12/09 09:56:18;;;;;;;4.80;3.37;;;6.60;99.90;;;6.54;80.22;99768.22;5010608;28;20639;-64
2021/12/09 09:58:51;;;;;;;13.10;3.37;;;6.70;99.90;;;6.51;78.64;99771.03;5014773;28;20724;-64
2021/12/09 10:01:20;;;;;;;2.77;2.57;;;6.70;99.90;;;6.43;79.67;99777.69;5018216;28;20728;-64
2021/12/09 10:03:52;;;;;;;6.37;3.07;;;6.50;99.90;;;6.42;78.64;99778.59;5015842;28;20636;-64
2021/12/09 10:06:19;;;;;;;3.17;2.57;;;6.40;99.90;;;6.36;78.94;99773.84;5017716;28;21110;-65
2021/12/09 10:08:47;;;;;;;4.03;2.40;;;6.30;99.90;;;6.33;79.38;99768.84;5017189;28;20643;-66
2021/12/09 10:11:14;;;;;;;2.70;2.00;;;6.30;99.90;;;6.20;79.66;99772.28;5018525;28;20613;-65
2021/12/09 10:13:43;;;;;;;7.10;3.37;;;6.10;99.90;;;6.16;79.81;99770.00;5016078;28;21208;-65
2021/12/09 10:16:23;;;;;;;3.73;2.17;;;6.10;99.90;;;6.13;80.41;99771.03;5017507;28;20671;-65
2021/12/09 10:18:53;;;;;;;4.80;3.27;;;6.10;99.90;;;6.09;80.27;99772.16;5015613;28;20640;-65
2021/12/09 10:21:28;;;;;;;6.10;2.40;;;6.00;99.90;;;6.16;79.80;99775.19;5016034;28;21201;-65
2021/12/09 10:24:07;;;;;;;3.30;2.83;;;6.10;99.90;;;6.14;80.17;99770.13;5016286;28;20619;-65
2021/12/09 10:26:43;;;;;;;3.13;2.93;;;6.10;99.90;;;6.16;80.48;99764.81;5015500;28;20683;-66
2021/12/09 10:29:30;;;;;;;5.30;2.50;;;6.10;99.90;;;6.22;80.14;99767.81;5016838;28;20715;-65
2021/12/09 10:32:02;;;;;;;3.63;2.83;;;6.20;99.90;;;6.19;79.96;99770.66;5015154;28;20633;-65
2021/12/09 10:34:40;;;;;;;3.73;2.30;;;6.20;99.90;;;6.26;79.19;99768.47;5015947;28;21192;-65
2021/12/09 10:37:21;;;;;;;1.27;1.27;;;6.20;99.90;;;6.28;78.21;99764.81;5015967;28;20657;-65
2021/12/09 10:39:57;;;;;;;4.43;2.70;;;6.30;99.90;;;6.33;77.22;99758.50;5016790;28;21199;-65
2021/12/09 10:42:33;;;;;;;2.10;1.80;;;6.30;99.90;;;6.43;76.84;99762.13;5014360;28;20633;-65
2021/12/09 10:45:24;;;;;;;3.00;2.80;;;6.40;99.90;;;6.47;76.28;99750.63;5015712;28;21277;-65
2021/12/09 10:48:32;;;;;;;2.07;1.97;;;6.50;99.90;;;6.48;77.09;99747.09;5017561;28;20633;-65
2021/12/09 10:53:46;;;;;;;5.87;3.30;;;6.50;99.90;;;6.57;76.27;99760.25;5016309;28;20635;-66